map of IWK home
IWK - Airport
Location
City:  Iwakuni, Yamaguchi, Japan
Name:MCAS Iwakuni
ICAO:RJOI
IATA:IWK

Details
Type:Airport (Aerodrome, Airfield)
Use:Military, International (customs port of entry)
Latitude:3408'38"N (34.143860)
Longitude:13214'09"E (132.235750)
Datum:WGS 1984
Elevation:7 ft (2 m)
Variation:7.72W (WMM2015v2 magnetic declination)
-0.08 annual change
Runways:2
Longest:8000 × 150 ft (2438 × 45.5 m), paved

Time
Time Zone:UTC+9
Local Time:

Weather
METAR:RJOI 041355Z 32004KT 9999 FEW030 FEW180 06/01 A3025 RMK SLP242 T00560006

Related Locations
Nearby:
Farthest:SSMT: 12157 mi / 19566 km
Mostardas, RS, BR

Find:

   beyond  
but within

Other Information
Maps:
NOTAMs:
Links:
Sources:

  
  • flag of Japan
  • flag of Yamaguchi
  

Airport Diagram

Airport diagram for IWK

Larger airport diagram (OBSOLETE) from NGA

Sectional Chart

Flight Planning
at skyvector.com

Satellite Image

Google Maps Satellite view

 

Copyright © 2004-2019 Karl L. Swartz. All rights reserved.
The Great Circle Mapper name and logo are trademarks of the Great Circle Mapper.
All other trademarks mentioned herein belong to their respective owners.
Please see credits for attibutions and further copyright information.

  Follow gcmap on Facebook Follow gcmap on Twitter GCmap on LinkedIn

hCard Microformat

Geo Microformat